createdAt,value
2019-05-18T00:01:39.511Z,9.40
2019-05-18T00:04:09.308Z,10.13
2019-05-18T00:06:39.103Z,10.57
2019-05-18T00:09:09.689Z,9.77
2019-05-18T00:11:39.486Z,10.00
2019-05-18T00:14:12.488Z,9.77
2019-05-18T00:16:42.212Z,10.30
2019-05-18T00:19:11.970Z,10.00
2019-05-18T00:21:41.693Z,10.93
2019-05-18T00:24:11.772Z,10.77
2019-05-18T00:26:41.582Z,9.43
2019-05-18T00:29:11.368Z,10.63
2019-05-18T00:31:41.084Z,10.20
2019-05-18T00:34:10.944Z,10.27
2019-05-18T00:36:40.706Z,9.83
2019-05-18T00:39:10.825Z,10.43
2019-05-18T00:41:40.558Z,10.53
2019-05-18T00:44:10.382Z,10.13
2019-05-18T00:46:40.076Z,10.03
2019-05-18T00:49:09.905Z,10.43
2019-05-18T00:51:39.713Z,10.20
2019-05-18T00:54:09.540Z,9.67
2019-05-18T00:56:39.481Z,10.17
2019-05-18T00:59:09.610Z,10.07
2019-05-18T01:01:39.383Z,10.57
2019-05-18T01:04:09.161Z,10.30
2019-05-18T01:06:38.851Z,10.70
2019-05-18T01:09:08.770Z,10.60
2019-05-18T01:11:38.567Z,10.63
2019-05-18T01:14:08.450Z,10.80
2019-05-18T01:16:38.282Z,10.10
2019-05-18T01:19:08.110Z,10.53
2019-05-18T01:21:38.069Z,11.23
2019-05-18T01:24:08.090Z,10.47
2019-05-18T01:26:37.842Z,11.37
2019-05-18T01:29:07.959Z,11.00
2019-05-18T01:31:37.844Z,10.07
2019-05-18T01:34:07.770Z,10.97
2019-05-18T01:36:37.629Z,11.23
2019-05-18T01:39:08.259Z,11.23
2019-05-18T01:41:37.980Z,11.33
2019-05-18T01:44:07.738Z,11.50
2019-05-18T01:46:37.579Z,11.33
2019-05-18T01:49:07.297Z,12.10
2019-05-18T01:51:37.138Z,10.73
2019-05-18T01:54:06.976Z,11.60
2019-05-18T01:56:36.815Z,11.53
2019-05-18T01:59:06.466Z,11.10
2019-05-18T02:01:36.281Z,11.20
2019-05-18T02:04:06.159Z,10.43
2019-05-18T02:06:36.017Z,10.17
2019-05-18T02:09:08.496Z,10.07
2019-05-18T02:11:38.618Z,11.17
2019-05-18T02:14:08.510Z,11.13
2019-05-18T02:16:38.300Z,11.17
2019-05-18T02:19:08.103Z,11.27
2019-05-18T02:21:37.909Z,10.57
2019-05-18T02:24:07.866Z,10.90
2019-05-18T02:26:37.826Z,10.67
2019-05-18T02:29:07.676Z,11.07
2019-05-18T02:31:37.433Z,10.67
2019-05-18T02:34:07.210Z,10.13
2019-05-18T02:36:36.948Z,10.13
2019-05-18T02:39:08.339Z,10.47
2019-05-18T02:41:38.163Z,10.23
2019-05-18T02:44:08.335Z,10.80
2019-05-18T02:46:38.270Z,10.70
2019-05-18T02:49:08.136Z,10.23
2019-05-18T02:51:38.011Z,10.90
2019-05-18T02:54:07.914Z,10.83
2019-05-18T02:56:37.982Z,11.13
2019-05-18T02:59:07.887Z,11.70
2019-05-18T03:01:37.821Z,11.27
2019-05-18T03:04:07.898Z,11.63
2019-05-18T03:06:37.717Z,11.57
2019-05-18T03:09:08.009Z,11.37
2019-05-18T03:11:38.381Z,11.17
2019-05-18T03:14:08.266Z,11.20
2019-05-18T03:16:38.001Z,11.20
2019-05-18T03:19:09.105Z,10.20
2019-05-18T03:21:39.334Z,10.43
2019-05-18T03:24:09.211Z,10.57
2019-05-18T03:26:39.131Z,10.93
2019-05-18T03:29:08.968Z,11.17
2019-05-18T03:31:38.742Z,11.30
2019-05-18T03:34:08.567Z,10.97
2019-05-18T03:36:38.344Z,11.17
2019-05-18T03:39:08.122Z,11.23
2019-05-18T03:41:37.875Z,11.60
2019-05-18T03:44:07.558Z,10.30
2019-05-18T03:46:37.317Z,11.17
2019-05-18T03:49:23.575Z,10.87
2019-05-18T03:51:38.602Z,11.70
2019-05-18T03:54:08.375Z,11.80
2019-05-18T03:56:38.162Z,11.63
2019-05-18T03:59:08.008Z,10.97
2019-05-18T04:01:37.770Z,10.37
2019-05-18T04:04:07.644Z,11.13
2019-05-18T04:06:37.303Z,12.03
2019-05-18T04:09:07.737Z,11.17
2019-05-18T04:11:37.501Z,11.23
2019-05-18T04:14:08.380Z,11.97
2019-05-18T04:16:38.641Z,12.33
2019-05-18T04:19:08.462Z,11.13
2019-05-18T04:21:38.496Z,11.27
2019-05-18T04:24:09.704Z,11.50
2019-05-18T04:26:43.529Z,11.80
2019-05-18T04:29:13.320Z,11.43
2019-05-18T04:31:43.168Z,11.17
2019-05-18T04:34:12.967Z,11.37
2019-05-18T04:36:42.978Z,11.53
2019-05-18T04:39:12.797Z,10.77
2019-05-18T04:41:42.501Z,11.13
2019-05-18T04:44:12.179Z,11.53
2019-05-18T04:46:41.993Z,10.47
2019-05-18T04:49:11.836Z,11.80
2019-05-18T04:51:41.598Z,11.67
2019-05-18T04:54:11.550Z,11.47
2019-05-18T04:56:42.971Z,11.03
2019-05-18T04:59:12.787Z,10.83
2019-05-18T05:01:42.631Z,11.60
2019-05-18T05:04:12.668Z,12.20
2019-05-18T05:06:42.374Z,11.23
2019-05-18T05:09:12.224Z,11.70
2019-05-18T05:11:42.007Z,11.00
2019-05-18T05:14:11.788Z,11.47
2019-05-18T05:16:41.636Z,11.93
2019-05-18T05:19:11.474Z,11.07
2019-05-18T05:21:41.320Z,11.77
2019-05-18T05:24:11.269Z,11.00
2019-05-18T05:26:41.202Z,10.63
2019-05-18T05:29:10.955Z,10.03
2019-05-18T05:31:40.712Z,11.63
2019-05-18T05:34:10.624Z,11.13
2019-05-18T05:36:40.658Z,11.83
2019-05-18T05:39:11.819Z,11.03
2019-05-18T05:41:43.149Z,10.70
2019-05-18T05:44:12.986Z,11.53
2019-05-18T05:46:42.749Z,12.00
2019-05-18T05:49:12.693Z,12.37
2019-05-18T05:51:42.382Z,12.40
2019-05-18T05:54:12.213Z,11.40
2019-05-18T05:56:41.932Z,11.67
2019-05-18T05:59:11.833Z,11.70
2019-05-18T06:01:41.756Z,11.63
2019-05-18T06:04:11.665Z,10.77
2019-05-18T06:06:41.582Z,11.23
2019-05-18T06:09:11.484Z,10.10
2019-05-18T06:11:41.232Z,11.07
2019-05-18T06:14:11.236Z,11.43
2019-05-18T06:16:41.087Z,11.50
2019-05-18T06:19:11.040Z,10.63
2019-05-18T06:21:43.729Z,9.93
2019-05-18T06:24:13.654Z,9.23
2019-05-18T06:26:43.434Z,9.97
2019-05-18T06:29:13.353Z,12.10
2019-05-18T06:31:43.165Z,11.77
2019-05-18T06:34:13.137Z,10.60
2019-05-18T06:36:42.988Z,10.53
2019-05-18T06:39:12.929Z,11.00
2019-05-18T06:41:42.655Z,9.77
2019-05-18T06:44:12.364Z,11.03
2019-05-18T06:46:42.083Z,11.17
2019-05-18T06:49:11.955Z,11.67
2019-05-18T06:51:41.791Z,12.10
2019-05-18T06:54:11.536Z,11.73
2019-05-18T06:56:42.379Z,13.40
2019-05-18T06:59:12.762Z,13.03
2019-05-18T07:01:42.509Z,12.00
2019-05-18T07:04:12.322Z,13.83
2019-05-18T07:06:42.302Z,12.07
2019-05-18T07:09:14.389Z,12.67
2019-05-18T07:11:43.672Z,13.17
2019-05-18T07:14:25.001Z,13.00
2019-05-18T07:16:45.463Z,13.60
2019-05-18T07:19:15.118Z,12.57
2019-05-18T07:21:44.890Z,12.40
2019-05-18T07:24:15.010Z,12.27
2019-05-18T07:26:44.818Z,12.77
2019-05-18T07:29:14.725Z,13.77
2019-05-18T07:31:44.560Z,13.80
2019-05-18T07:34:14.461Z,12.97
2019-05-18T07:36:44.242Z,14.20
2019-05-18T07:39:14.228Z,13.97
2019-05-18T07:41:46.802Z,14.37
2019-05-18T07:44:15.871Z,13.90
2019-05-18T07:46:45.757Z,13.20
2019-05-18T07:49:15.796Z,12.47
2019-05-18T07:51:45.867Z,13.57
2019-05-18T07:54:16.100Z,13.27
2019-05-18T07:56:45.888Z,13.20
2019-05-18T07:59:16.358Z,12.33
2019-05-18T08:01:46.092Z,12.00
2019-05-18T08:04:15.908Z,12.77
2019-05-18T08:06:46.009Z,11.77
2019-05-18T08:09:15.734Z,12.20
2019-05-18T08:11:45.847Z,11.43
2019-05-18T08:14:15.837Z,11.40
2019-05-18T08:16:45.570Z,11.67
2019-05-18T08:19:15.711Z,9.60
2019-05-18T08:21:53.305Z,9.73
2019-05-18T08:24:17.051Z,8.27
2019-05-18T08:26:46.818Z,7.53
2019-05-18T08:29:16.773Z,9.13
2019-05-18T08:31:46.447Z,8.13
2019-05-18T08:34:16.298Z,8.77
2019-05-18T08:36:46.073Z,8.10
2019-05-18T08:39:16.097Z,8.80
2019-05-18T08:41:48.637Z,8.10
2019-05-18T08:44:17.347Z,7.40
2019-05-18T08:46:47.487Z,9.27
2019-05-18T08:49:17.312Z,7.63
2019-05-18T08:51:47.155Z,8.70
2019-05-18T08:54:16.960Z,8.77
2019-05-18T08:56:46.895Z,8.43
2019-05-18T08:59:16.701Z,9.30
2019-05-18T09:01:46.518Z,8.90
2019-05-18T09:04:16.384Z,7.47
2019-05-18T09:06:48.754Z,9.10
2019-05-18T09:09:20.214Z,9.00
2019-05-18T09:11:50.620Z,8.13
2019-05-18T09:14:21.826Z,8.20
2019-05-18T09:16:53.278Z,9.73
2019-05-18T09:19:23.004Z,9.33
2019-05-18T09:21:53.161Z,10.40
2019-05-18T09:24:22.975Z,10.87
2019-05-18T09:26:52.843Z,9.87
2019-05-18T09:29:22.751Z,10.53
2019-05-18T09:31:52.692Z,11.17
2019-05-18T09:34:22.561Z,10.43
2019-05-18T09:36:52.417Z,10.53
2019-05-18T09:39:22.599Z,11.40
2019-05-18T09:41:52.378Z,11.20
2019-05-18T09:44:22.218Z,13.30
2019-05-18T09:46:52.431Z,12.23
2019-05-18T09:49:23.485Z,11.80
2019-05-18T09:51:53.349Z,12.20
2019-05-18T09:54:23.252Z,11.67
2019-05-18T09:56:54.631Z,11.53
2019-05-18T09:59:24.550Z,10.80
2019-05-18T10:01:54.409Z,10.63
2019-05-18T10:04:24.201Z,12.73
2019-05-18T10:06:53.944Z,15.67
2019-05-18T10:09:23.957Z,13.80
2019-05-18T10:11:53.806Z,13.77
2019-05-18T10:14:23.670Z,12.17
2019-05-18T10:16:53.791Z,12.27
2019-05-18T10:19:23.564Z,12.73
2019-05-18T10:21:53.615Z,12.60
2019-05-18T10:24:23.467Z,12.13
2019-05-18T10:26:53.155Z,11.03
2019-05-18T10:29:23.058Z,10.80
2019-05-18T10:31:52.848Z,11.13
2019-05-18T10:34:22.944Z,10.07
2019-05-18T10:36:52.759Z,11.27
2019-05-18T10:39:22.810Z,10.47
2019-05-18T10:41:52.635Z,10.60
2019-05-18T10:44:22.648Z,10.47
2019-05-18T10:46:52.517Z,11.00
2019-05-18T10:49:22.584Z,9.70
2019-05-18T10:51:52.340Z,12.47
2019-05-18T10:54:22.232Z,10.97
2019-05-18T10:56:52.432Z,10.23
2019-05-18T10:59:22.194Z,9.70
2019-05-18T11:01:52.019Z,10.47
2019-05-18T11:04:21.952Z,9.03
2019-05-18T11:06:52.080Z,10.10
2019-05-18T11:09:22.021Z,9.90
2019-05-18T11:11:52.027Z,9.87
2019-05-18T11:14:21.817Z,8.20
2019-05-18T11:16:52.420Z,8.00
2019-05-18T11:19:22.180Z,7.63
2019-05-18T11:21:52.089Z,8.07
2019-05-18T11:24:21.908Z,7.97
2019-05-18T11:26:51.713Z,7.83
2019-05-18T11:29:23.476Z,6.63
2019-05-18T11:31:53.069Z,6.30
2019-05-18T11:34:22.819Z,6.53
2019-05-18T11:36:52.549Z,6.63
2019-05-18T11:39:22.316Z,6.87
2019-05-18T11:41:52.152Z,6.33
2019-05-18T11:44:21.952Z,7.20
2019-05-18T11:46:51.684Z,7.17
2019-05-18T11:49:21.444Z,6.87
2019-05-18T11:51:51.193Z,7.33
2019-05-18T11:54:20.974Z,6.20
2019-05-18T11:56:50.807Z,6.50
2019-05-18T11:59:20.743Z,6.23
2019-05-18T12:01:50.632Z,5.93
2019-05-18T12:04:20.503Z,5.70
2019-05-18T12:06:51.061Z,6.30
2019-05-18T12:09:20.887Z,5.37
2019-05-18T12:11:50.687Z,6.10
2019-05-18T12:14:20.525Z,5.87
2019-05-18T12:16:50.314Z,5.83
2019-05-18T12:19:20.250Z,5.50
2019-05-18T12:21:50.126Z,5.53
2019-05-18T12:24:19.936Z,6.70
2019-05-18T12:26:49.654Z,6.20
2019-05-18T12:29:19.510Z,6.83
2019-05-18T12:31:49.290Z,6.77
2019-05-18T12:34:18.962Z,5.97
2019-05-18T12:36:48.702Z,5.87
2019-05-18T12:39:18.363Z,5.97
2019-05-18T12:41:48.661Z,4.70
2019-05-18T12:44:18.589Z,4.50
2019-05-18T12:46:48.624Z,3.90
2019-05-18T12:49:18.473Z,3.27
2019-05-18T12:51:48.384Z,3.30
2019-05-18T12:54:29.294Z,3.00
2019-05-18T12:56:49.821Z,4.17
2019-05-18T12:59:19.622Z,4.37
2019-05-18T13:01:49.400Z,3.83
2019-05-18T13:04:19.259Z,3.53
2019-05-18T13:06:48.925Z,4.07
2019-05-18T13:09:18.715Z,3.80
2019-05-18T13:11:48.484Z,4.03
2019-05-18T13:14:18.383Z,3.60
2019-05-18T13:16:48.065Z,4.00
2019-05-18T13:19:17.843Z,3.57
2019-05-18T13:21:47.571Z,3.67
2019-05-18T13:24:17.330Z,3.83
2019-05-18T13:26:47.295Z,3.97
2019-05-18T13:29:17.104Z,3.70
2019-05-18T13:31:46.774Z,3.60
2019-05-18T13:34:16.545Z,3.33
2019-05-18T13:36:46.368Z,4.10
2019-05-18T13:39:16.071Z,3.80
2019-05-18T13:41:45.819Z,4.10
2019-05-18T13:44:15.802Z,3.60
2019-05-18T13:46:45.524Z,4.13
2019-05-18T13:49:15.205Z,4.03
2019-05-18T13:51:44.936Z,3.60
2019-05-18T13:54:14.632Z,4.00
2019-05-18T13:56:44.385Z,3.60
2019-05-18T13:59:14.126Z,3.70
2019-05-18T14:01:43.909Z,4.40
2019-05-18T14:04:13.929Z,3.90
2019-05-18T14:06:43.743Z,3.77
2019-05-18T14:09:13.621Z,4.60
2019-05-18T14:11:43.309Z,4.70
2019-05-18T14:14:13.100Z,5.53
2019-05-18T14:16:42.869Z,5.17
2019-05-18T14:19:12.683Z,4.47
2019-05-18T14:21:42.410Z,4.83
2019-05-18T14:24:12.151Z,4.57
2019-05-18T14:26:41.871Z,5.43
2019-05-18T14:29:11.906Z,5.60
2019-05-18T14:31:41.642Z,4.73
2019-05-18T14:34:11.513Z,4.03
2019-05-18T14:36:41.219Z,4.53
2019-05-18T14:39:10.989Z,4.90
2019-05-18T14:41:42.619Z,4.63
2019-05-18T14:44:12.394Z,4.83
2019-05-18T14:46:42.326Z,4.83
2019-05-18T14:49:13.732Z,4.33
2019-05-18T14:51:43.905Z,4.50
2019-05-18T14:54:13.708Z,4.13
2019-05-18T14:56:43.473Z,4.50
2019-05-18T14:59:13.427Z,4.50
2019-05-18T15:01:43.164Z,5.20
2019-05-18T15:04:12.994Z,4.73
2019-05-18T15:06:43.267Z,4.03
2019-05-18T15:09:13.120Z,4.07
2019-05-18T15:11:43.104Z,4.10
2019-05-18T15:14:14.037Z,4.23
2019-05-18T15:16:43.815Z,4.67
2019-05-18T15:19:13.567Z,3.63
2019-05-18T15:21:43.865Z,4.20
2019-05-18T15:24:13.689Z,4.73
2019-05-18T15:26:43.463Z,5.40
2019-05-18T15:29:14.283Z,4.60
2019-05-18T15:31:44.200Z,5.30
2019-05-18T15:34:16.904Z,4.70
2019-05-18T15:36:46.802Z,3.57
2019-05-18T15:39:16.754Z,4.40
2019-05-18T15:41:46.517Z,3.90
2019-05-18T15:44:16.228Z,2.90
2019-05-18T15:46:45.904Z,2.63
2019-05-18T15:49:15.772Z,2.67
2019-05-18T15:51:45.498Z,2.07
2019-05-18T15:54:15.482Z,2.00
2019-05-18T15:56:45.147Z,2.30
2019-05-18T15:59:14.900Z,3.00
2019-05-18T16:01:44.791Z,2.73
2019-05-18T16:04:14.758Z,3.10
2019-05-18T16:06:44.486Z,3.20
2019-05-18T16:09:14.202Z,3.90
2019-05-18T16:11:43.882Z,3.97
2019-05-18T16:14:13.622Z,3.60
2019-05-18T16:16:43.390Z,6.60
2019-05-18T16:19:13.148Z,4.10
2019-05-18T16:21:42.912Z,2.97
2019-05-18T16:24:12.744Z,3.00
2019-05-18T16:26:42.442Z,3.30
2019-05-18T16:29:12.243Z,3.50
2019-05-18T16:31:41.979Z,3.43
2019-05-18T16:34:11.794Z,3.83
2019-05-18T16:36:41.636Z,4.13
2019-05-18T16:39:13.039Z,4.27
2019-05-18T16:41:42.746Z,4.63
2019-05-18T16:44:12.436Z,4.60
2019-05-18T16:47:01.470Z,4.07
2019-05-18T16:49:31.338Z,4.77
2019-05-18T16:52:01.263Z,4.90
2019-05-18T16:54:31.071Z,4.97
2019-05-18T16:57:00.847Z,5.20
2019-05-18T16:59:30.565Z,5.23
2019-05-18T17:02:00.293Z,5.43
2019-05-18T17:04:30.360Z,6.20
2019-05-18T17:07:00.217Z,6.40
2019-05-18T17:09:30.088Z,6.30
2019-05-18T17:11:59.875Z,6.23
2019-05-18T17:14:29.659Z,6.10
2019-05-18T17:17:00.786Z,7.40
2019-05-18T17:19:31.186Z,6.93
2019-05-18T17:22:01.097Z,9.50
2019-05-18T17:24:33.497Z,11.77
2019-05-18T17:27:03.244Z,10.63
2019-05-18T17:29:32.976Z,9.63
2019-05-18T17:32:02.776Z,8.87
2019-05-18T17:34:32.585Z,9.33
2019-05-18T17:37:02.769Z,8.87
2019-05-18T17:39:32.543Z,9.40
2019-05-18T17:42:05.007Z,9.30
2019-05-18T17:44:33.983Z,9.73
2019-05-18T17:47:03.802Z,9.67
2019-05-18T17:49:33.556Z,9.50
2019-05-18T17:52:03.325Z,9.13
2019-05-18T17:54:33.146Z,9.40
2019-05-18T17:57:08.497Z,8.70
2019-05-18T17:59:34.382Z,7.47
2019-05-18T18:02:04.213Z,7.47
2019-05-18T18:04:33.906Z,7.93
2019-05-18T18:07:03.942Z,7.63
2019-05-18T18:09:33.817Z,8.97
2019-05-18T18:12:03.642Z,9.43
2019-05-18T18:14:33.382Z,7.10
2019-05-18T18:17:03.107Z,7.03
2019-05-18T18:19:32.798Z,8.03
2019-05-18T18:22:02.566Z,8.03
2019-05-18T18:24:32.354Z,6.67
2019-05-18T18:27:02.151Z,6.87
2019-05-18T18:29:32.074Z,6.97
2019-05-18T18:32:02.574Z,8.13
2019-05-18T18:34:32.327Z,7.13
2019-05-18T18:37:02.081Z,7.93
2019-05-18T18:39:31.858Z,7.50
2019-05-18T18:42:01.540Z,6.57
2019-05-18T18:44:31.310Z,7.30
2019-05-18T18:47:01.033Z,6.90
2019-05-18T18:49:30.838Z,7.17
2019-05-18T18:52:00.600Z,6.83
2019-05-18T18:54:30.390Z,7.47
2019-05-18T18:57:00.109Z,7.40
2019-05-18T18:59:29.792Z,7.10
2019-05-18T19:01:59.886Z,7.60
2019-05-18T19:04:29.905Z,7.20
2019-05-18T19:06:59.690Z,7.60
2019-05-18T19:09:29.435Z,7.27
2019-05-18T19:11:59.144Z,7.83
2019-05-18T19:14:28.891Z,7.73
2019-05-18T19:16:58.612Z,7.43
2019-05-18T19:19:31.035Z,7.07
2019-05-18T19:22:00.834Z,6.90
2019-05-18T19:24:30.568Z,7.57
2019-05-18T19:27:00.301Z,7.97
2019-05-18T19:29:30.165Z,8.10
2019-05-18T19:31:59.929Z,8.60
2019-05-18T19:34:29.606Z,9.17
2019-05-18T19:36:59.360Z,8.93
2019-05-18T19:39:29.334Z,9.47
2019-05-18T19:41:59.024Z,9.13
2019-05-18T19:44:28.773Z,10.23
2019-05-18T19:46:58.558Z,10.20
2019-05-18T19:49:28.317Z,10.47
2019-05-18T19:51:58.023Z,9.67
2019-05-18T19:54:27.709Z,10.50
2019-05-18T19:56:57.558Z,9.90
2019-05-18T19:59:27.439Z,9.57
2019-05-18T20:01:57.233Z,11.27
2019-05-18T20:04:26.970Z,11.97
2019-05-18T20:06:56.754Z,12.60
2019-05-18T20:09:26.415Z,12.70
2019-05-18T20:11:56.144Z,11.90
2019-05-18T20:14:25.876Z,10.97
2019-05-18T20:16:55.849Z,12.10
2019-05-18T20:19:38.230Z,11.80
2019-05-18T20:21:57.736Z,11.03
2019-05-18T20:24:27.516Z,10.60
2019-05-18T20:26:57.294Z,10.93
2019-05-18T20:29:27.174Z,10.50
2019-05-18T20:31:57.101Z,10.70
2019-05-18T20:34:26.869Z,10.30
2019-05-18T20:36:56.833Z,11.47
2019-05-18T20:39:28.595Z,11.47
2019-05-18T20:41:58.400Z,11.07
2019-05-18T20:44:28.485Z,11.80
2019-05-18T20:46:58.554Z,11.70
2019-05-18T20:49:28.447Z,12.47
2019-05-18T20:51:58.233Z,12.40
2019-05-18T20:54:27.995Z,12.73
2019-05-18T20:56:57.742Z,13.20
2019-05-18T20:59:30.505Z,13.87
2019-05-18T21:02:00.459Z,13.43
2019-05-18T21:04:30.270Z,13.63
2019-05-18T21:07:01.318Z,12.87
2019-05-18T21:09:32.013Z,13.00
2019-05-18T21:12:03.460Z,12.50
2019-05-18T21:14:33.318Z,14.43
2019-05-18T21:17:03.160Z,12.93
2019-05-18T21:19:33.112Z,13.47
2019-05-18T21:22:02.830Z,13.07
2019-05-18T21:24:32.776Z,12.50
2019-05-18T21:27:02.803Z,12.93
2019-05-18T21:29:34.566Z,12.93
2019-05-18T21:32:06.368Z,12.80
2019-05-18T21:34:36.492Z,11.57
2019-05-18T21:37:06.266Z,12.33
2019-05-18T21:39:36.497Z,13.13
2019-05-18T21:42:06.493Z,12.07
2019-05-18T21:44:36.525Z,12.60
2019-05-18T21:47:06.437Z,11.47
2019-05-18T21:49:37.033Z,11.70
2019-05-18T21:52:07.274Z,11.93
2019-05-18T21:54:37.422Z,12.10
2019-05-18T21:57:07.180Z,11.90
2019-05-18T21:59:37.089Z,12.20
2019-05-18T22:02:07.343Z,12.67
2019-05-18T22:04:37.250Z,11.97
2019-05-18T22:07:07.032Z,12.80
2019-05-18T22:09:39.684Z,12.00
2019-05-18T22:12:10.717Z,12.27
2019-05-18T22:14:40.591Z,12.97
2019-05-18T22:17:10.317Z,12.23
2019-05-18T22:19:40.010Z,12.03
2019-05-18T22:22:09.868Z,10.70
2019-05-18T22:24:39.938Z,10.83
2019-05-18T22:27:12.545Z,11.30
2019-05-18T22:29:46.134Z,10.43
2019-05-18T22:32:16.358Z,10.40
2019-05-18T22:34:46.105Z,10.37
2019-05-18T22:37:18.335Z,10.97
2019-05-18T22:39:48.081Z,10.37
2019-05-18T22:42:17.886Z,12.17
2019-05-18T22:44:47.558Z,12.30
2019-05-18T22:47:17.478Z,10.80
2019-05-18T22:49:47.185Z,11.90
2019-05-18T22:52:16.975Z,11.57
2019-05-18T22:54:47.628Z,13.13
2019-05-18T22:57:17.425Z,12.30
2019-05-18T22:59:48.001Z,11.77
2019-05-18T23:02:17.946Z,11.97
2019-05-18T23:04:48.016Z,10.43
2019-05-18T23:07:17.793Z,12.73
2019-05-18T23:09:47.502Z,11.37
2019-05-18T23:12:17.225Z,13.63
2019-05-18T23:14:46.956Z,12.33
2019-05-18T23:17:16.819Z,12.50
2019-05-18T23:19:46.820Z,13.00
2019-05-18T23:22:16.663Z,13.40
2019-05-18T23:24:46.414Z,14.00
2019-05-18T23:27:16.167Z,14.60
2019-05-18T23:29:45.875Z,13.93
2019-05-18T23:32:15.629Z,15.97
2019-05-18T23:34:45.322Z,15.73
2019-05-18T23:37:15.161Z,17.57
2019-05-18T23:39:45.025Z,17.00
2019-05-18T23:42:14.859Z,17.00
2019-05-18T23:44:44.535Z,17.50
2019-05-18T23:47:14.261Z,18.97
2019-05-18T23:49:43.972Z,17.67
2019-05-18T23:52:13.741Z,18.37
2019-05-18T23:54:43.449Z,18.47
2019-05-18T23:57:13.267Z,19.00
2019-05-18T23:59:42.952Z,20.50
